sensor_id;sensor_type;location;lat;lon;timestamp;pressure;altitude;pressure_sealevel;temperature;humidity
12763;BME280;6445;52.490;13.378;2023-04-24T00:02:16;35432.69;;;-146.10;100.00
12763;BME280;6445;52.490;13.378;2023-04-24T00:04:41;34291.38;;;-146.10;100.00
12763;BME280;6445;52.490;13.378;2023-04-24T00:07:09;31120.16;;;-146.10;100.00
12763;BME280;6445;52.490;13.378;2023-04-24T00:09:35;29747.38;;;-146.10;100.00
12763;BME280;6445;52.490;13.378;2023-04-24T00:12:00;32210.78;;;-146.10;100.00
12763;BME280;6445;52.490;13.378;2023-04-24T00:14:27;33032.94;;;-146.10;100.00
12763;BME280;6445;52.490;13.378;2023-04-24T00:16:52;34104.19;;;-146.10;100.00
12763;BME280;6445;52.490;13.378;2023-04-24T00:19:18;40749.22;;;-146.10;100.00
12763;BME280;6445;52.490;13.378;2023-04-24T00:21:46;38940.34;;;-146.10;100.00
12763;BME280;6445;52.490;13.378;2023-04-24T00:24:11;34627.97;;;-146.10;100.00
12763;BME280;6445;52.490;13.378;2023-04-24T00:26:36;33805.47;;;-146.10;100.00
12763;BME280;6445;52.490;13.378;2023-04-24T00:29:01;36046.31;;;-146.10;100.00
12763;BME280;6445;52.490;13.378;2023-04-24T00:31:27;35912.81;;;-146.10;100.00
12763;BME280;6445;52.490;13.378;2023-04-24T00:33:52;37405.38;;;-146.10;100.00
12763;BME280;6445;52.490;13.378;2023-04-24T00:36:17;34560.25;;;-146.10;100.00
12763;BME280;6445;52.490;13.378;2023-04-24T00:38:45;34092.25;;;-146.10;100.00
12763;BME280;6445;52.490;13.378;2023-04-24T00:41:11;33311.69;;;-146.10;100.00
12763;BME280;6445;52.490;13.378;2023-04-24T00:43:36;32780.09;;;-146.10;100.00
12763;BME280;6445;52.490;13.378;2023-04-24T00:46:01;32698.50;;;-146.10;100.00
12763;BME280;6445;52.490;13.378;2023-04-24T00:48:27;38150.84;;;-146.10;100.00
12763;BME280;6445;52.490;13.378;2023-04-24T00:50:52;32943.34;;;-146.10;100.00
12763;BME280;6445;52.490;13.378;2023-04-24T00:53:18;35247.44;;;-146.10;100.00
12763;BME280;6445;52.490;13.378;2023-04-24T00:55:44;34500.50;;;-146.10;100.00
12763;BME280;6445;52.490;13.378;2023-04-24T00:58:09;32997.09;;;-146.10;100.00
12763;BME280;6445;52.490;13.378;2023-04-24T01:00:34;27889.88;;;-146.10;100.00
12763;BME280;6445;52.490;13.378;2023-04-24T01:03:01;24312.66;;;-146.10;100.00
12763;BME280;6445;52.490;13.378;2023-04-24T01:05:29;23093.16;;;-146.10;100.00
12763;BME280;6445;52.490;13.378;2023-04-24T01:07:55;22646.38;;;-146.10;100.00
12763;BME280;6445;52.490;13.378;2023-04-24T01:10:20;32573.06;;;-146.10;100.00
12763;BME280;6445;52.490;13.378;2023-04-24T01:12:46;44551.16;;;-146.10;100.00
12763;BME280;6445;52.490;13.378;2023-04-24T01:15:11;40055.09;;;-146.10;100.00
12763;BME280;6445;52.490;13.378;2023-04-24T01:17:36;36454.78;;;-146.10;100.00
12763;BME280;6445;52.490;13.378;2023-04-24T01:20:03;33431.13;;;-146.10;100.00
12763;BME280;6445;52.490;13.378;2023-04-24T01:22:30;33094.66;;;-146.10;100.00
12763;BME280;6445;52.490;13.378;2023-04-24T01:24:55;28820.50;;;-146.10;100.00
12763;BME280;6445;52.490;13.378;2023-04-24T01:27:21;26834.25;;;-146.10;100.00
12763;BME280;6445;52.490;13.378;2023-04-24T01:29:47;25168.91;;;-146.10;100.00
12763;BME280;6445;52.490;13.378;2023-04-24T01:32:14;26053.16;;;-146.10;100.00
12763;BME280;6445;52.490;13.378;2023-04-24T01:34:40;24137.84;;;-146.10;100.00
12763;BME280;6445;52.490;13.378;2023-04-24T01:37:05;23037.56;;;-146.10;100.00
12763;BME280;6445;52.490;13.378;2023-04-24T01:39:31;23307.63;;;-146.10;100.00
12763;BME280;6445;52.490;13.378;2023-04-24T01:41:58;34512.44;;;-146.10;100.00
12763;BME280;6445;52.490;13.378;2023-04-24T01:44:25;36759.66;;;-146.10;100.00
12763;BME280;6445;52.490;13.378;2023-04-24T01:46:51;35113.97;;;-146.10;100.00
12763;BME280;6445;52.490;13.378;2023-04-24T01:49:16;40972.66;;;-146.10;100.00
12763;BME280;6445;52.490;13.378;2023-04-24T01:51:41;44585.09;;;-146.10;100.00
12763;BME280;6445;52.490;13.378;2023-04-24T01:54:07;41577.16;;;-146.10;100.00
12763;BME280;6445;52.490;13.378;2023-04-24T01:56:33;42289.50;;;-146.10;100.00
12763;BME280;6445;52.490;13.378;2023-04-24T01:59:02;44507.22;;;-146.10;100.00
12763;BME280;6445;52.490;13.378;2023-04-24T02:01:33;47707.25;;;-146.10;100.00
12763;BME280;6445;52.490;13.378;2023-04-24T02:03:59;47443.47;;;-146.10;100.00
12763;BME280;6445;52.490;13.378;2023-04-24T02:06:24;45623.53;;;-146.10;100.00
12763;BME280;6445;52.490;13.378;2023-04-24T02:08:49;47165.72;;;-146.10;100.00
12763;BME280;6445;52.490;13.378;2023-04-24T02:11:15;42491.06;;;-146.10;100.00
12763;BME280;6445;52.490;13.378;2023-04-24T02:13:40;39889.56;;;-146.10;100.00
12763;BME280;6445;52.490;13.378;2023-04-24T02:16:05;36345.19;;;-146.10;100.00
12763;BME280;6445;52.490;13.378;2023-04-24T02:18:30;32316.28;;;-146.10;100.00
12763;BME280;6445;52.490;13.378;2023-04-24T02:20:56;30624.72;;;-146.10;100.00
12763;BME280;6445;52.490;13.378;2023-04-24T02:23:21;28500.34;;;-146.10;100.00
12763;BME280;6445;52.490;13.378;2023-04-24T02:25:46;27404.78;;;-146.10;100.00
12763;BME280;6445;52.490;13.378;2023-04-24T02:28:12;28383.00;;;-146.10;100.00
12763;BME280;6445;52.490;13.378;2023-04-24T02:30:37;28621.66;;;-146.10;100.00
12763;BME280;6445;52.490;13.378;2023-04-24T02:33:02;29964.22;;;-146.10;100.00
12763;BME280;6445;52.490;13.378;2023-04-24T02:35:28;23907.44;;;-146.10;100.00
12763;BME280;6445;52.490;13.378;2023-04-24T02:37:53;20282.25;;;-146.10;100.00
12763;BME280;6445;52.490;13.378;2023-04-24T02:40:19;17255.22;;;-146.10;100.00
12763;BME280;6445;52.490;13.378;2023-04-24T02:42:44;14290.03;;;-146.10;100.00
12763;BME280;6445;52.490;13.378;2023-04-24T02:45:10;12895.41;;;-146.10;100.00
12763;BME280;6445;52.490;13.378;2023-04-24T02:47:35;10867.78;;;-146.10;100.00
12763;BME280;6445;52.490;13.378;2023-04-24T02:50:02;9977.06;;;-146.10;100.00
12763;BME280;6445;52.490;13.378;2023-04-24T02:52:27;9775.19;;;-146.10;100.00
12763;BME280;6445;52.490;13.378;2023-04-24T02:54:53;7978.66;;;-146.10;100.00
12763;BME280;6445;52.490;13.378;2023-04-24T02:57:18;6030.69;;;-146.10;100.00
12763;BME280;6445;52.490;13.378;2023-04-24T02:59:44;3884.16;;;-146.10;100.00
12763;BME280;6445;52.490;13.378;2023-04-24T03:02:09;3878.22;;;-146.10;100.00
12763;BME280;6445;52.490;13.378;2023-04-24T03:04:34;3036.53;;;-146.10;100.00
12763;BME280;6445;52.490;13.378;2023-04-24T03:07:00;660.63;;;-146.10;100.00
12763;BME280;6445;52.490;13.378;2023-04-24T03:09:26;111.78;;;-146.10;100.00
12763;BME280;6445;52.490;13.378;2023-04-24T03:11:51;230.25;;;-146.10;100.00
12763;BME280;6445;52.490;13.378;2023-04-24T03:14:16;-44.16;;;-146.10;100.00
12763;BME280;6445;52.490;13.378;2023-04-24T03:16:42;-622.50;;;-146.10;100.00
12763;BME280;6445;52.490;13.378;2023-04-24T03:19:07;-99.44;;;-146.10;100.00
12763;BME280;6445;52.490;13.378;2023-04-24T03:21:32;-1248.13;;;-146.10;100.00
12763;BME280;6445;52.490;13.378;2023-04-24T03:23:58;-1982.16;;;-146.10;100.00
12763;BME280;6445;52.490;13.378;2023-04-24T03:26:23;-1623.03;;;-146.10;100.00
12763;BME280;6445;52.490;13.378;2023-04-24T03:28:48;-3576.03;;;-146.10;100.00
12763;BME280;6445;52.490;13.378;2023-04-24T03:31:13;-3157.88;;;-146.10;100.00
12763;BME280;6445;52.490;13.378;2023-04-24T03:33:40;-5522.09;;;-146.10;100.00
12763;BME280;6445;52.490;13.378;2023-04-24T03:36:05;-4313.56;;;-146.10;100.00
12763;BME280;6445;52.490;13.378;2023-04-24T03:38:30;-4358.91;;;-146.10;100.00
12763;BME280;6445;52.490;13.378;2023-04-24T03:40:56;-4108.47;;;-146.10;100.00
12763;BME280;6445;52.490;13.378;2023-04-24T03:43:21;-4002.00;;;-146.10;100.00
12763;BME280;6445;52.490;13.378;2023-04-24T03:45:46;-4264.25;;;-146.10;100.00
12763;BME280;6445;52.490;13.378;2023-04-24T03:48:11;-5196.81;;;-146.10;100.00
12763;BME280;6445;52.490;13.378;2023-04-24T03:50:37;-5303.28;;;-146.10;100.00
12763;BME280;6445;52.490;13.378;2023-04-24T03:53:02;-5654.16;;;-146.10;100.00
12763;BME280;6445;52.490;13.378;2023-04-24T03:55:27;-6801.19;;;-146.10;100.00
12763;BME280;6445;52.490;13.378;2023-04-24T03:57:52;-6840.59;;;-146.10;100.00
12763;BME280;6445;52.490;13.378;2023-04-24T04:00:18;-5908.41;;;-146.10;100.00
12763;BME280;6445;52.490;13.378;2023-04-24T04:02:43;-6996.25;;;-146.10;100.00
12763;BME280;6445;52.490;13.378;2023-04-24T04:05:08;-6225.75;;;-146.10;100.00
12763;BME280;6445;52.490;13.378;2023-04-24T04:07:34;-5768.47;;;-146.10;100.00
12763;BME280;6445;52.490;13.378;2023-04-24T04:09:59;-6304.56;;;-146.10;100.00
12763;BME280;6445;52.490;13.378;2023-04-24T04:12:24;-5175.13;;;-146.10;100.00
12763;BME280;6445;52.490;13.378;2023-04-24T04:14:50;-5039.13;;;-146.10;100.00
12763;BME280;6445;52.490;13.378;2023-04-24T04:17:15;-5324.97;;;-146.10;100.00
12763;BME280;6445;52.490;13.378;2023-04-24T04:19:40;-4956.31;;;-146.10;100.00
12763;BME280;6445;52.490;13.378;2023-04-24T04:22:05;-5196.81;;;-146.10;100.00
12763;BME280;6445;52.490;13.378;2023-04-24T04:24:33;-5323.00;;;-146.10;100.00
12763;BME280;6445;52.490;13.378;2023-04-24T04:26:58;-5096.28;;;-146.10;100.00
12763;BME280;6445;52.490;13.378;2023-04-24T04:29:24;-4652.69;;;-146.10;100.00
12763;BME280;6445;52.490;13.378;2023-04-24T04:31:49;-3994.09;;;-146.10;100.00
12763;BME280;6445;52.490;13.378;2023-04-24T04:34:15;-5299.34;;;-146.10;100.00
12763;BME280;6445;52.490;13.378;2023-04-24T04:36:41;-4934.63;;;-146.10;100.00
12763;BME280;6445;52.490;13.378;2023-04-24T04:39:06;-5569.41;;;-146.10;100.00
12763;BME280;6445;52.490;13.378;2023-04-24T04:41:32;-5796.06;;;-146.10;100.00
12763;BME280;6445;52.490;13.378;2023-04-24T04:43:57;-6365.66;;;-146.10;100.00
12763;BME280;6445;52.490;13.378;2023-04-24T04:46:23;-7165.72;;;-146.10;100.00
12763;BME280;6445;52.490;13.378;2023-04-24T04:48:51;-6546.97;;;-146.10;100.00
12763;BME280;6445;52.490;13.378;2023-04-24T04:51:16;-6448.44;;;-146.10;100.00
12763;BME280;6445;52.490;13.378;2023-04-24T04:53:42;-5941.94;;;-146.10;100.00
12763;BME280;6445;52.490;13.378;2023-04-24T04:56:07;-5529.97;;;-146.10;100.00
12763;BME280;6445;52.490;13.378;2023-04-24T04:58:32;-5100.22;;;-146.10;100.00
12763;BME280;6445;52.490;13.378;2023-04-24T05:00:58;-4276.09;;;-146.10;100.00
12763;BME280;6445;52.490;13.378;2023-04-24T05:03:24;-4388.47;;;-146.10;100.00
12763;BME280;6445;52.490;13.378;2023-04-24T05:05:49;-3522.78;;;-146.10;100.00
12763;BME280;6445;52.490;13.378;2023-04-24T05:08:14;-2860.03;;;-146.10;100.00
12763;BME280;6445;52.490;13.378;2023-04-24T05:10:39;-1909.16;;;-146.10;100.00
12763;BME280;6445;52.490;13.378;2023-04-24T05:13:05;-932.38;;;-146.10;100.00
12763;BME280;6445;52.490;13.378;2023-04-24T05:15:30;-65.88;;;-146.10;100.00
12763;BME280;6445;52.490;13.378;2023-04-24T05:17:55;741.56;;;-146.10;100.00
12763;BME280;6445;52.490;13.378;2023-04-24T05:20:21;2637.47;;;-146.10;100.00
12763;BME280;6445;52.490;13.378;2023-04-24T05:22:46;3305.22;;;-146.10;100.00
12763;BME280;6445;52.490;13.378;2023-04-24T05:25:11;5275.50;;;-146.10;100.00
12763;BME280;6445;52.490;13.378;2023-04-24T05:27:37;10038.41;;;-146.10;100.00
12763;BME280;6445;52.490;13.378;2023-04-24T05:30:03;12319.09;;;-146.10;100.00
12763;BME280;6445;52.490;13.378;2023-04-24T05:32:29;26794.50;;;-146.10;100.00
12763;BME280;6445;52.490;13.378;2023-04-24T05:34:55;43822.41;;;-146.10;100.00
12763;BME280;6445;52.490;13.378;2023-04-24T05:37:20;47343.56;;;-146.10;100.00
12763;BME280;6445;52.490;13.378;2023-04-24T05:39:45;49364.19;;;-146.10;100.00
12763;BME280;6445;52.490;13.378;2023-04-24T05:42:10;51401.88;;;-146.10;100.00
12763;BME280;6445;52.490;13.378;2023-04-24T05:44:36;53534.66;;;-146.10;100.00
12763;BME280;6445;52.490;13.378;2023-04-24T05:47:01;56483.63;;;-146.10;100.00
12763;BME280;6445;52.490;13.378;2023-04-24T05:49:26;57659.41;;;-146.10;100.00
12763;BME280;6445;52.490;13.378;2023-04-24T05:51:52;59741.44;;;-146.10;100.00
12763;BME280;6445;52.490;13.378;2023-04-24T05:54:17;62542.56;;;-146.10;100.00
12763;BME280;6445;52.490;13.378;2023-04-24T05:56:42;62516.50;;;-146.10;100.00
12763;BME280;6445;52.490;13.378;2023-04-24T05:59:08;60254.59;;;-146.10;100.00
12763;BME280;6445;52.490;13.378;2023-04-24T06:01:33;58040.06;;;-146.10;96.96
12763;BME280;6445;52.490;13.378;2023-04-24T06:03:59;56928.25;;;-146.10;94.26
12763;BME280;6445;52.490;13.378;2023-04-24T06:06:24;55087.94;;;-146.10;88.37
12763;BME280;6445;52.490;13.378;2023-04-24T06:08:50;56886.19;;;-146.10;92.28
12763;BME280;6445;52.490;13.378;2023-04-24T06:11:15;54483.34;;;-146.10;84.96
12763;BME280;6445;52.490;13.378;2023-04-24T06:13:41;53718.75;;;-146.10;81.89
12763;BME280;6445;52.490;13.378;2023-04-24T06:16:06;53562.66;;;-146.10;80.65
12763;BME280;6445;52.490;13.378;2023-04-24T06:18:31;52816.25;;;-146.10;74.77
12763;BME280;6445;52.490;13.378;2023-04-24T06:20:57;52582.16;;;-146.10;71.23
12763;BME280;6445;52.490;13.378;2023-04-24T06:23:22;53382.56;;;-146.10;80.63
12763;BME280;6445;52.490;13.378;2023-04-24T06:25:47;56465.59;;;-146.10;89.72
12763;BME280;6445;52.490;13.378;2023-04-24T06:28:12;56872.16;;;-146.10;89.19
12763;BME280;6445;52.490;13.378;2023-04-24T06:30:38;53470.59;;;-146.10;77.51
12763;BME280;6445;52.490;13.378;2023-04-24T06:33:03;53288.50;;;-146.10;77.26
12763;BME280;6445;52.490;13.378;2023-04-24T06:35:28;52500.13;;;-146.10;67.83
12763;BME280;6445;52.490;13.378;2023-04-24T06:37:53;52286.03;;;-146.10;60.61
12763;BME280;6445;52.490;13.378;2023-04-24T06:40:21;52278.03;;;-146.10;60.46
12763;BME280;6445;52.490;13.378;2023-04-24T06:42:46;52320.06;;;-146.10;56.12
12763;BME280;6445;52.490;13.378;2023-04-24T06:45:11;52330.06;;;-146.10;50.12
12763;BME280;6445;52.490;13.378;2023-04-24T06:47:36;52330.06;;;-146.10;49.77
12763;BME280;6445;52.490;13.378;2023-04-24T06:50:03;52336.06;;;-146.10;49.17
12763;BME280;6445;52.490;13.378;2023-04-24T06:52:28;52344.06;;;-146.10;48.77
12763;BME280;6445;52.490;13.378;2023-04-24T06:55:00;52334.06;;;-146.10;49.99
12763;BME280;6445;52.490;13.378;2023-04-24T06:57:25;52388.09;;;-146.10;45.35
12763;BME280;6445;52.490;13.378;2023-04-24T06:59:50;52456.09;;;-146.10;44.19
12763;BME280;6445;52.490;13.378;2023-04-24T07:02:15;52340.06;;;-146.10;49.06
12763;BME280;6445;52.490;13.378;2023-04-24T07:04:41;52390.09;;;-146.10;45.29
12763;BME280;6445;52.490;13.378;2023-04-24T07:07:06;52342.06;;;-146.10;47.13
12763;BME280;6445;52.490;13.378;2023-04-24T07:09:32;52302.06;;;-146.10;49.44
12763;BME280;6445;52.490;13.378;2023-04-24T07:12:00;52346.06;;;-146.10;47.14
12763;BME280;6445;52.490;13.378;2023-04-24T07:14:25;52392.09;;;-146.10;42.79
12763;BME280;6445;52.490;13.378;2023-04-24T07:16:50;52276.03;;;-146.10;46.66
12763;BME280;6445;52.490;13.378;2023-04-24T07:19:16;52222.03;;;-146.10;50.71
12763;BME280;6445;52.490;13.378;2023-04-24T07:21:41;52204.03;;;-146.10;53.87
12763;BME280;6445;52.490;13.378;2023-04-24T07:24:06;52222.03;;;-146.10;57.07
12763;BME280;6445;52.490;13.378;2023-04-24T07:26:35;52226.03;;;-146.10;57.96
12763;BME280;6445;52.490;13.378;2023-04-24T07:29:02;52210.03;;;-146.10;57.01
12763;BME280;6445;52.490;13.378;2023-04-24T07:31:27;52188.03;;;-146.10;58.54
12763;BME280;6445;52.490;13.378;2023-04-24T07:33:52;52210.03;;;-146.10;58.25
12763;BME280;6445;52.490;13.378;2023-04-24T07:36:17;52190.03;;;-146.10;58.39
12763;BME280;6445;52.490;13.378;2023-04-24T07:38:45;52294.06;;;-146.10;49.77
12763;BME280;6445;52.490;13.378;2023-04-24T07:41:10;52388.09;;;-146.10;42.39
12763;BME280;6445;52.490;13.378;2023-04-24T07:43:35;52412.09;;;-146.10;40.06
12763;BME280;6445;52.490;13.378;2023-04-24T07:46:01;52444.09;;;-146.10;38.18
12763;BME280;6445;52.490;13.378;2023-04-24T07:48:26;52348.06;;;-146.10;39.01
12763;BME280;6445;52.490;13.378;2023-04-24T07:50:52;52492.13;;;-146.10;36.53
12763;BME280;6445;52.490;13.378;2023-04-24T07:53:18;52358.06;;;-146.10;37.43
12763;BME280;6445;52.490;13.378;2023-04-24T07:55:43;52422.09;;;-146.10;37.09
12763;BME280;6445;52.490;13.378;2023-04-24T07:58:09;52510.13;;;-146.10;34.84
12763;BME280;6445;52.490;13.378;2023-04-24T08:00:34;52546.13;;;-146.10;33.00
12763;BME280;6445;52.490;13.378;2023-04-24T08:02:59;52526.13;;;-146.10;33.00
12763;BME280;6445;52.490;13.378;2023-04-24T08:05:25;52524.13;;;-146.10;32.98
12763;BME280;6445;52.490;13.378;2023-04-24T08:07:52;52562.16;;;-146.10;32.43
12763;BME280;6445;52.490;13.378;2023-04-24T08:10:17;52460.09;;;-146.10;33.83
12763;BME280;6445;52.490;13.378;2023-04-24T08:12:43;52516.13;;;-146.10;32.76
12763;BME280;6445;52.490;13.378;2023-04-24T08:15:08;52460.09;;;-146.10;33.92
12763;BME280;6445;52.490;13.378;2023-04-24T08:17:34;52444.09;;;-146.10;33.76
12763;BME280;6445;52.490;13.378;2023-04-24T08:20:01;52296.06;;;-146.10;36.33
12763;BME280;6445;52.490;13.378;2023-04-24T08:22:29;52248.03;;;-146.10;38.44
12763;BME280;6445;52.490;13.378;2023-04-24T08:24:55;52252.03;;;-146.10;39.18
12763;BME280;6445;52.490;13.378;2023-04-24T08:27:22;52234.03;;;-146.10;41.07
12763;BME280;6445;52.490;13.378;2023-04-24T08:29:47;52252.03;;;-146.10;42.55
12763;BME280;6445;52.490;13.378;2023-04-24T08:32:12;52370.06;;;-146.10;43.07
12763;BME280;6445;52.490;13.378;2023-04-24T08:34:37;52532.13;;;-146.10;36.89
12763;BME280;6445;52.490;13.378;2023-04-24T08:37:03;52454.09;;;-146.10;35.16
12763;BME280;6445;52.490;13.378;2023-04-24T08:39:28;52332.06;;;-146.10;36.31
12763;BME280;6445;52.490;13.378;2023-04-24T08:41:55;52268.03;;;-146.10;38.11
12763;BME280;6445;52.490;13.378;2023-04-24T08:44:21;52214.03;;;-146.10;41.14
12763;BME280;6445;52.490;13.378;2023-04-24T08:46:48;52234.03;;;-146.10;42.11
12763;BME280;6445;52.490;13.378;2023-04-24T08:49:14;52236.03;;;-146.10;41.46
12763;BME280;6445;52.490;13.378;2023-04-24T08:51:41;52292.06;;;-146.10;39.33
12763;BME280;6445;52.490;13.378;2023-04-24T08:54:07;52278.03;;;-146.10;39.91
12763;BME280;6445;52.490;13.378;2023-04-24T08:56:34;52434.09;;;-146.10;36.97
12763;BME280;6445;52.490;13.378;2023-04-24T08:59:03;52506.13;;;-146.10;34.20
12763;BME280;6445;52.490;13.378;2023-04-24T09:01:28;52286.03;;;-146.10;39.53
12763;BME280;6445;52.490;13.378;2023-04-24T09:03:56;52282.03;;;-146.10;41.75
12763;BME280;6445;52.490;13.378;2023-04-24T09:06:23;52242.03;;;-146.10;43.93
12763;BME280;6445;52.490;13.378;2023-04-24T09:08:49;52248.03;;;-146.10;44.10
12763;BME280;6445;52.490;13.378;2023-04-24T09:11:17;52208.03;;;-146.10;49.82
12763;BME280;6445;52.490;13.378;2023-04-24T09:13:43;52216.03;;;-146.10;51.22
12763;BME280;6445;52.490;13.378;2023-04-24T09:16:08;52192.03;;;-146.10;52.97
12763;BME280;6445;52.490;13.378;2023-04-24T09:18:33;52160.00;;;-146.10;54.25
12763;BME280;6445;52.490;13.378;2023-04-24T09:21:07;52186.03;;;-146.10;54.50
12763;BME280;6445;52.490;13.378;2023-04-24T09:23:33;52190.03;;;-146.10;54.56
12763;BME280;6445;52.490;13.378;2023-04-24T09:26:01;52196.03;;;-146.10;54.93
12763;BME280;6445;52.490;13.378;2023-04-24T09:28:30;52210.03;;;-146.10;56.57
12763;BME280;6445;52.490;13.378;2023-04-24T09:31:13;52278.03;;;-146.10;53.75
12763;BME280;6445;52.490;13.378;2023-04-24T09:33:39;52236.03;;;-146.10;53.45
12763;BME280;6445;52.490;13.378;2023-04-24T09:36:05;52210.03;;;-146.10;55.15
12763;BME280;6445;52.490;13.378;2023-04-24T09:38:36;52212.03;;;-146.10;56.37
12763;BME280;6445;52.490;13.378;2023-04-24T09:41:06;52260.03;;;-146.10;53.17
12763;BME280;6445;52.490;13.378;2023-04-24T09:43:32;52194.03;;;-146.10;53.21
12763;BME280;6445;52.490;13.378;2023-04-24T09:45:59;52218.03;;;-146.10;54.54
12763;BME280;6445;52.490;13.378;2023-04-24T09:48:33;52164.00;;;-146.10;56.01
12763;BME280;6445;52.490;13.378;2023-04-24T09:51:00;52196.03;;;-146.10;56.61
12763;BME280;6445;52.490;13.378;2023-04-24T09:53:27;52172.00;;;-146.10;54.22
12763;BME280;6445;52.490;13.378;2023-04-24T09:55:52;52210.03;;;-146.10;54.67
12763;BME280;6445;52.490;13.378;2023-04-24T09:58:18;52222.03;;;-146.10;53.96
12763;BME280;6445;52.490;13.378;2023-04-24T10:00:49;52230.03;;;-146.10;53.52
12763;BME280;6445;52.490;13.378;2023-04-24T10:03:17;52252.03;;;-146.10;51.39
12763;BME280;6445;52.490;13.378;2023-04-24T10:05:45;52210.03;;;-146.10;50.47
12763;BME280;6445;52.490;13.378;2023-04-24T10:08:12;52262.03;;;-146.10;48.55
12763;BME280;6445;52.490;13.378;2023-04-24T10:13:11;52382.09;;;-146.10;41.46
12763;BME280;6445;52.490;13.378;2023-04-24T10:15:38;52522.13;;;-146.10;37.17
12763;BME280;6445;52.490;13.378;2023-04-24T10:18:04;52410.09;;;-146.10;38.11
12763;BME280;6445;52.490;13.378;2023-04-24T10:20:31;52328.06;;;-146.10;41.63
12763;BME280;6445;52.490;13.378;2023-04-24T10:22:57;52278.03;;;-146.10;42.94
12763;BME280;6445;52.490;13.378;2023-04-24T10:25:28;52222.03;;;-146.10;45.71
12763;BME280;6445;52.490;13.378;2023-04-24T10:27:54;52208.03;;;-146.10;48.32
12763;BME280;6445;52.490;13.378;2023-04-24T10:30:25;52166.00;;;-146.10;52.24
12763;BME280;6445;52.490;13.378;2023-04-24T10:32:51;52178.00;;;-146.10;53.15
12763;BME280;6445;52.490;13.378;2023-04-24T10:35:17;52164.00;;;-146.10;54.34
12763;BME280;6445;52.490;13.378;2023-04-24T10:37:46;52146.00;;;-146.10;56.54
12763;BME280;6445;52.490;13.378;2023-04-24T10:40:17;52156.00;;;-146.10;57.63
12763;BME280;6445;52.490;13.378;2023-04-24T10:42:47;52128.00;;;-146.10;59.56
12763;BME280;6445;52.490;13.378;2023-04-24T10:45:16;52172.00;;;-146.10;59.32
12763;BME280;6445;52.490;13.378;2023-04-24T10:47:51;52146.00;;;-146.10;59.27
12763;BME280;6445;52.490;13.378;2023-04-24T10:50:16;52154.00;;;-146.10;60.19
12763;BME280;6445;52.490;13.378;2023-04-24T10:52:49;52164.00;;;-146.10;60.54
12763;BME280;6445;52.490;13.378;2023-04-24T10:55:16;52160.00;;;-146.10;60.75
12763;BME280;6445;52.490;13.378;2023-04-24T10:58:03;52174.00;;;-146.10;61.71
12763;BME280;6445;52.490;13.378;2023-04-24T11:00:28;52184.03;;;-146.10;63.35
12763;BME280;6445;52.490;13.378;2023-04-24T11:02:53;52196.03;;;-146.10;62.45
12763;BME280;6445;52.490;13.378;2023-04-24T11:05:21;52254.03;;;-146.10;54.02
12763;BME280;6445;52.490;13.378;2023-04-24T11:08:12;52282.03;;;-146.10;50.00
12763;BME280;6445;52.490;13.378;2023-04-24T11:10:45;52396.09;;;-146.10;41.88
12763;BME280;6445;52.490;13.378;2023-04-24T11:13:14;52368.06;;;-146.10;42.71
12763;BME280;6445;52.490;13.378;2023-04-24T11:15:41;52334.06;;;-146.10;41.78
12763;BME280;6445;52.490;13.378;2023-04-24T11:18:11;52408.09;;;-146.10;40.82
12763;BME280;6445;52.490;13.378;2023-04-24T11:20:41;52284.03;;;-146.10;43.40
12763;BME280;6445;52.490;13.378;2023-04-24T11:23:07;52282.03;;;-146.10;44.36
12763;BME280;6445;52.490;13.378;2023-04-24T11:25:33;52224.03;;;-146.10;50.15
12763;BME280;6445;52.490;13.378;2023-04-24T11:28:04;52166.00;;;-146.10;52.87
12763;BME280;6445;52.490;13.378;2023-04-24T11:30:32;52170.00;;;-146.10;54.34
12763;BME280;6445;52.490;13.378;2023-04-24T11:33:05;52142.00;;;-146.10;58.28
12763;BME280;6445;52.490;13.378;2023-04-24T11:35:39;52160.00;;;-146.10;59.21
12763;BME280;6445;52.490;13.378;2023-04-24T11:38:04;52244.03;;;-146.10;61.58
12763;BME280;6445;52.490;13.378;2023-04-24T11:40:30;52214.03;;;-146.10;59.57
12763;BME280;6445;52.490;13.378;2023-04-24T11:42:55;52222.03;;;-146.10;59.19
12763;BME280;6445;52.490;13.378;2023-04-24T11:45:23;52202.03;;;-146.10;61.25
12763;BME280;6445;52.490;13.378;2023-04-24T11:47:49;52284.03;;;-146.10;66.20
12763;BME280;6445;52.490;13.378;2023-04-24T11:50:16;52300.06;;;-146.10;62.63
12763;BME280;6445;52.490;13.378;2023-04-24T11:52:44;52286.03;;;-146.10;58.29
12763;BME280;6445;52.490;13.378;2023-04-24T11:57:59;52232.03;;;-146.10;60.71
12763;BME280;6445;52.490;13.378;2023-04-24T12:00:28;52248.03;;;-146.10;62.60
12763;BME280;6445;52.490;13.378;2023-04-24T12:03:12;52278.03;;;-146.10;59.42
12763;BME280;6445;52.490;13.378;2023-04-24T12:05:38;52276.03;;;-146.10;54.39
12763;BME280;6445;52.490;13.378;2023-04-24T12:08:04;52308.06;;;-146.10;50.56
12763;BME280;6445;52.490;13.378;2023-04-24T12:10:31;52262.03;;;-146.10;54.33
12763;BME280;6445;52.490;13.378;2023-04-24T12:12:57;52208.03;;;-146.10;58.67
12763;BME280;6445;52.490;13.378;2023-04-24T12:15:23;52234.03;;;-146.10;58.84
12763;BME280;6445;52.490;13.378;2023-04-24T12:17:53;52298.06;;;-146.10;54.08
12763;BME280;6445;52.490;13.378;2023-04-24T12:20:30;52284.03;;;-146.10;49.23
12763;BME280;6445;52.490;13.378;2023-04-24T12:22:57;52232.03;;;-146.10;53.42
12763;BME280;6445;52.490;13.378;2023-04-24T12:25:25;52212.03;;;-146.10;54.85
12763;BME280;6445;52.490;13.378;2023-04-24T12:28:10;52258.03;;;-146.10;49.19
12763;BME280;6445;52.490;13.378;2023-04-24T12:30:54;52230.03;;;-146.10;40.24
12763;BME280;6445;52.490;13.378;2023-04-24T12:33:20;52204.03;;;-146.10;38.19
12763;BME280;6445;52.490;13.378;2023-04-24T12:35:45;52144.00;;;-146.10;39.40
12763;BME280;6445;52.490;13.378;2023-04-24T12:38:12;52158.00;;;-146.10;39.44